sensor_id;sensor_type;location;lat;lon;timestamp;P1;durP1;ratioP1;P2;durP2;ratioP2
35114;SDS011;21292;52.416;13.046;2023-08-08T00:01:09;6.10;;;2.50;;
35114;SDS011;21292;52.416;13.046;2023-08-08T00:03:38;9.50;;;3.22;;
35114;SDS011;21292;52.416;13.046;2023-08-08T00:06:07;5.75;;;2.83;;
35114;SDS011;21292;52.416;13.046;2023-08-08T00:08:37;4.63;;;2.08;;
35114;SDS011;21292;52.416;13.046;2023-08-08T00:11:08;8.80;;;2.80;;
35114;SDS011;21292;52.416;13.046;2023-08-08T00:13:37;9.50;;;2.67;;
35114;SDS011;21292;52.416;13.046;2023-08-08T00:16:07;9.55;;;2.50;;
35114;SDS011;21292;52.416;13.046;2023-08-08T00:18:37;8.80;;;2.45;;
35114;SDS011;21292;52.416;13.046;2023-08-08T00:21:07;7.97;;;3.15;;
35114;SDS011;21292;52.416;13.046;2023-08-08T00:23:35;6.07;;;2.53;;
35114;SDS011;21292;52.416;13.046;2023-08-08T00:26:04;9.25;;;2.45;;
35114;SDS011;21292;52.416;13.046;2023-08-08T00:28:34;7.88;;;2.53;;
35114;SDS011;21292;52.416;13.046;2023-08-08T00:31:02;7.13;;;2.70;;
35114;SDS011;21292;52.416;13.046;2023-08-08T00:33:36;10.85;;;2.85;;
35114;SDS011;21292;52.416;13.046;2023-08-08T00:36:04;7.90;;;2.35;;
35114;SDS011;21292;52.416;13.046;2023-08-08T00:38:34;5.60;;;2.47;;
35114;SDS011;21292;52.416;13.046;2023-08-08T00:41:04;7.60;;;2.63;;
35114;SDS011;21292;52.416;13.046;2023-08-08T00:43:37;6.05;;;2.35;;
35114;SDS011;21292;52.416;13.046;2023-08-08T00:46:05;5.20;;;2.40;;
35114;SDS011;21292;52.416;13.046;2023-08-08T00:48:35;10.45;;;3.30;;
35114;SDS011;21292;52.416;13.046;2023-08-08T00:51:04;7.65;;;2.35;;
35114;SDS011;21292;52.416;13.046;2023-08-08T00:53:34;7.05;;;2.78;;
35114;SDS011;21292;52.416;13.046;2023-08-08T00:56:04;7.90;;;2.88;;
35114;SDS011;21292;52.416;13.046;2023-08-08T00:58:33;4.57;;;2.65;;
35114;SDS011;21292;52.416;13.046;2023-08-08T01:01:03;10.15;;;3.10;;
35114;SDS011;21292;52.416;13.046;2023-08-08T01:03:32;5.97;;;2.72;;
35114;SDS011;21292;52.416;13.046;2023-08-08T01:06:01;7.22;;;2.60;;
35114;SDS011;21292;52.416;13.046;2023-08-08T01:08:35;13.85;;;2.95;;
35114;SDS011;21292;52.416;13.046;2023-08-08T01:11:07;7.68;;;2.15;;
35114;SDS011;21292;52.416;13.046;2023-08-08T01:13:38;8.50;;;2.80;;
35114;SDS011;21292;52.416;13.046;2023-08-08T01:16:09;10.75;;;2.67;;
35114;SDS011;21292;52.416;13.046;2023-08-08T01:18:38;7.35;;;3.10;;
35114;SDS011;21292;52.416;13.046;2023-08-08T01:21:08;5.30;;;2.00;;
35114;SDS011;21292;52.416;13.046;2023-08-08T01:23:41;8.55;;;2.50;;
35114;SDS011;21292;52.416;13.046;2023-08-08T01:26:13;4.35;;;1.98;;
35114;SDS011;21292;52.416;13.046;2023-08-08T01:28:42;12.40;;;3.03;;
35114;SDS011;21292;52.416;13.046;2023-08-08T01:31:12;5.75;;;1.85;;
35114;SDS011;21292;52.416;13.046;2023-08-08T01:33:41;5.97;;;2.05;;
35114;SDS011;21292;52.416;13.046;2023-08-08T01:36:10;6.10;;;1.90;;
35114;SDS011;21292;52.416;13.046;2023-08-08T01:41:12;3.53;;;1.88;;
35114;SDS011;21292;52.416;13.046;2023-08-08T01:43:41;7.30;;;2.17;;
35114;SDS011;21292;52.416;13.046;2023-08-08T01:46:10;5.75;;;2.17;;
35114;SDS011;21292;52.416;13.046;2023-08-08T01:48:38;7.93;;;2.10;;
35114;SDS011;21292;52.416;13.046;2023-08-08T01:51:09;3.45;;;2.05;;
35114;SDS011;21292;52.416;13.046;2023-08-08T01:53:38;7.40;;;2.50;;
35114;SDS011;21292;52.416;13.046;2023-08-08T01:56:08;3.65;;;2.38;;
35114;SDS011;21292;52.416;13.046;2023-08-08T01:58:37;6.80;;;2.35;;
35114;SDS011;21292;52.416;13.046;2023-08-08T02:01:06;15.00;;;2.70;;
35114;SDS011;21292;52.416;13.046;2023-08-08T02:03:34;3.38;;;2.00;;
35114;SDS011;21292;52.416;13.046;2023-08-08T02:06:03;2.90;;;2.30;;
35114;SDS011;21292;52.416;13.046;2023-08-08T02:08:31;5.90;;;2.45;;
35114;SDS011;21292;52.416;13.046;2023-08-08T02:10:59;9.52;;;2.75;;
35114;SDS011;21292;52.416;13.046;2023-08-08T02:13:29;3.95;;;2.22;;
35114;SDS011;21292;52.416;13.046;2023-08-08T02:15:59;6.40;;;2.30;;
35114;SDS011;21292;52.416;13.046;2023-08-08T02:18:28;8.43;;;2.65;;
35114;SDS011;21292;52.416;13.046;2023-08-08T02:20:57;5.55;;;2.70;;
35114;SDS011;21292;52.416;13.046;2023-08-08T02:23:26;4.20;;;2.63;;
35114;SDS011;21292;52.416;13.046;2023-08-08T02:25:55;4.70;;;2.40;;
35114;SDS011;21292;52.416;13.046;2023-08-08T02:28:24;7.45;;;2.58;;
35114;SDS011;21292;52.416;13.046;2023-08-08T02:30:54;6.53;;;2.70;;
35114;SDS011;21292;52.416;13.046;2023-08-08T02:33:26;7.70;;;3.08;;
35114;SDS011;21292;52.416;13.046;2023-08-08T02:35:57;5.65;;;2.70;;
35114;SDS011;21292;52.416;13.046;2023-08-08T02:38:25;6.70;;;2.72;;
35114;SDS011;21292;52.416;13.046;2023-08-08T02:40:53;4.97;;;2.63;;
35114;SDS011;21292;52.416;13.046;2023-08-08T02:43:22;5.80;;;2.50;;
35114;SDS011;21292;52.416;13.046;2023-08-08T02:45:50;6.63;;;2.78;;
35114;SDS011;21292;52.416;13.046;2023-08-08T02:48:20;8.57;;;3.15;;
35114;SDS011;21292;52.416;13.046;2023-08-08T02:50:52;12.02;;;3.28;;
35114;SDS011;21292;52.416;13.046;2023-08-08T02:53:20;5.72;;;2.88;;
35114;SDS011;21292;52.416;13.046;2023-08-08T02:55:49;8.55;;;3.42;;
35114;SDS011;21292;52.416;13.046;2023-08-08T02:58:19;7.20;;;2.90;;
35114;SDS011;21292;52.416;13.046;2023-08-08T03:00:49;7.25;;;2.88;;
35114;SDS011;21292;52.416;13.046;2023-08-08T03:03:19;5.68;;;2.60;;
35114;SDS011;21292;52.416;13.046;2023-08-08T03:05:48;9.35;;;2.70;;
35114;SDS011;21292;52.416;13.046;2023-08-08T03:08:18;7.57;;;3.08;;
35114;SDS011;21292;52.416;13.046;2023-08-08T03:10:46;8.02;;;2.95;;
35114;SDS011;21292;52.416;13.046;2023-08-08T03:13:14;4.78;;;2.70;;
35114;SDS011;21292;52.416;13.046;2023-08-08T03:15:42;11.75;;;3.30;;
35114;SDS011;21292;52.416;13.046;2023-08-08T03:18:11;4.90;;;2.72;;
35114;SDS011;21292;52.416;13.046;2023-08-08T03:20:39;6.72;;;2.63;;
35114;SDS011;21292;52.416;13.046;2023-08-08T03:23:08;8.32;;;2.97;;
35114;SDS011;21292;52.416;13.046;2023-08-08T03:25:38;7.05;;;2.85;;
35114;SDS011;21292;52.416;13.046;2023-08-08T03:28:07;5.07;;;2.58;;
35114;SDS011;21292;52.416;13.046;2023-08-08T03:30:36;7.38;;;2.97;;
35114;SDS011;21292;52.416;13.046;2023-08-08T03:33:05;10.70;;;3.25;;
35114;SDS011;21292;52.416;13.046;2023-08-08T03:35:33;4.55;;;2.95;;
35114;SDS011;21292;52.416;13.046;2023-08-08T03:38:02;4.05;;;2.78;;
35114;SDS011;21292;52.416;13.046;2023-08-08T03:40:30;6.60;;;2.85;;
35114;SDS011;21292;52.416;13.046;2023-08-08T03:43:00;5.50;;;2.83;;
35114;SDS011;21292;52.416;13.046;2023-08-08T03:45:29;6.13;;;2.95;;
35114;SDS011;21292;52.416;13.046;2023-08-08T03:47:58;6.35;;;2.97;;
35114;SDS011;21292;52.416;13.046;2023-08-08T03:50:26;5.65;;;3.17;;
35114;SDS011;21292;52.416;13.046;2023-08-08T03:52:56;12.82;;;3.20;;
35114;SDS011;21292;52.416;13.046;2023-08-08T03:55:24;5.05;;;3.03;;
35114;SDS011;21292;52.416;13.046;2023-08-08T03:57:54;5.90;;;2.70;;
35114;SDS011;21292;52.416;13.046;2023-08-08T04:00:25;8.55;;;2.70;;
35114;SDS011;21292;52.416;13.046;2023-08-08T04:02:54;6.25;;;2.53;;
35114;SDS011;21292;52.416;13.046;2023-08-08T04:05:22;5.28;;;2.67;;
35114;SDS011;21292;52.416;13.046;2023-08-08T04:07:53;6.05;;;3.05;;
35114;SDS011;21292;52.416;13.046;2023-08-08T04:10:25;6.00;;;2.65;;
35114;SDS011;21292;52.416;13.046;2023-08-08T04:12:57;5.88;;;2.60;;
35114;SDS011;21292;52.416;13.046;2023-08-08T04:15:28;4.75;;;2.85;;
35114;SDS011;21292;52.416;13.046;2023-08-08T04:17:58;5.47;;;2.80;;
35114;SDS011;21292;52.416;13.046;2023-08-08T04:20:27;9.55;;;2.70;;
35114;SDS011;21292;52.416;13.046;2023-08-08T04:22:57;5.68;;;2.63;;
35114;SDS011;21292;52.416;13.046;2023-08-08T04:25:25;6.05;;;2.83;;
35114;SDS011;21292;52.416;13.046;2023-08-08T04:27:53;12.52;;;2.78;;
35114;SDS011;21292;52.416;13.046;2023-08-08T04:30:22;6.70;;;2.75;;
35114;SDS011;21292;52.416;13.046;2023-08-08T04:32:53;4.53;;;2.75;;
35114;SDS011;21292;52.416;13.046;2023-08-08T04:35:22;5.78;;;2.50;;
35114;SDS011;21292;52.416;13.046;2023-08-08T04:37:53;6.82;;;2.25;;
35114;SDS011;21292;52.416;13.046;2023-08-08T04:40:22;5.15;;;2.50;;
35114;SDS011;21292;52.416;13.046;2023-08-08T04:42:50;5.10;;;2.30;;
35114;SDS011;21292;52.416;13.046;2023-08-08T04:45:20;8.10;;;2.10;;
35114;SDS011;21292;52.416;13.046;2023-08-08T04:47:49;4.93;;;2.40;;
35114;SDS011;21292;52.416;13.046;2023-08-08T04:50:18;4.70;;;2.38;;
35114;SDS011;21292;52.416;13.046;2023-08-08T04:52:49;5.15;;;2.42;;
35114;SDS011;21292;52.416;13.046;2023-08-08T04:55:18;3.05;;;2.10;;
35114;SDS011;21292;52.416;13.046;2023-08-08T04:57:46;5.47;;;1.83;;
35114;SDS011;21292;52.416;13.046;2023-08-08T05:00:14;8.07;;;2.20;;
35114;SDS011;21292;52.416;13.046;2023-08-08T05:02:43;3.55;;;1.88;;
35114;SDS011;21292;52.416;13.046;2023-08-08T05:05:12;5.75;;;2.20;;
35114;SDS011;21292;52.416;13.046;2023-08-08T05:07:42;6.22;;;2.53;;
35114;SDS011;21292;52.416;13.046;2023-08-08T05:10:13;4.47;;;1.92;;
35114;SDS011;21292;52.416;13.046;2023-08-08T05:12:44;4.30;;;2.10;;
35114;SDS011;21292;52.416;13.046;2023-08-08T05:15:12;4.25;;;2.28;;
35114;SDS011;21292;52.416;13.046;2023-08-08T05:17:40;5.32;;;1.95;;
35114;SDS011;21292;52.416;13.046;2023-08-08T05:20:09;2.90;;;1.85;;
35114;SDS011;21292;52.416;13.046;2023-08-08T05:22:40;4.38;;;2.47;;
35114;SDS011;21292;52.416;13.046;2023-08-08T05:25:11;5.50;;;2.63;;
35114;SDS011;21292;52.416;13.046;2023-08-08T05:27:41;6.93;;;2.40;;
35114;SDS011;21292;52.416;13.046;2023-08-08T05:30:09;2.78;;;2.13;;
35114;SDS011;21292;52.416;13.046;2023-08-08T05:32:39;3.72;;;1.75;;
35114;SDS011;21292;52.416;13.046;2023-08-08T05:35:08;4.30;;;1.73;;
35114;SDS011;21292;52.416;13.046;2023-08-08T05:37:36;3.47;;;2.00;;
35114;SDS011;21292;52.416;13.046;2023-08-08T05:40:05;3.13;;;2.28;;
35114;SDS011;21292;52.416;13.046;2023-08-08T05:42:38;6.68;;;2.05;;
35114;SDS011;21292;52.416;13.046;2023-08-08T05:45:08;5.33;;;2.03;;
35114;SDS011;21292;52.416;13.046;2023-08-08T05:47:38;4.45;;;2.20;;
35114;SDS011;21292;52.416;13.046;2023-08-08T05:50:09;5.43;;;2.28;;
35114;SDS011;21292;52.416;13.046;2023-08-08T05:52:39;4.57;;;2.40;;
35114;SDS011;21292;52.416;13.046;2023-08-08T05:55:08;5.55;;;2.47;;
35114;SDS011;21292;52.416;13.046;2023-08-08T05:57:38;2.70;;;2.13;;
35114;SDS011;21292;52.416;13.046;2023-08-08T06:00:06;4.45;;;2.30;;
35114;SDS011;21292;52.416;13.046;2023-08-08T06:02:37;4.45;;;2.08;;
35114;SDS011;21292;52.416;13.046;2023-08-08T06:05:08;4.30;;;1.98;;
35114;SDS011;21292;52.416;13.046;2023-08-08T06:07:37;3.90;;;2.20;;
35114;SDS011;21292;52.416;13.046;2023-08-08T06:10:09;6.30;;;2.17;;
35114;SDS011;21292;52.416;13.046;2023-08-08T06:12:41;5.40;;;1.92;;
35114;SDS011;21292;52.416;13.046;2023-08-08T06:15:09;5.50;;;2.15;;
35114;SDS011;21292;52.416;13.046;2023-08-08T06:17:38;5.50;;;1.90;;
35114;SDS011;21292;52.416;13.046;2023-08-08T06:20:07;4.55;;;2.53;;
35114;SDS011;21292;52.416;13.046;2023-08-08T06:22:37;3.20;;;2.33;;
35114;SDS011;21292;52.416;13.046;2023-08-08T06:25:06;6.00;;;2.42;;
35114;SDS011;21292;52.416;13.046;2023-08-08T06:27:35;3.15;;;2.25;;
35114;SDS011;21292;52.416;13.046;2023-08-08T06:30:06;6.45;;;2.80;;
35114;SDS011;21292;52.416;13.046;2023-08-08T06:32:36;6.80;;;2.25;;
35114;SDS011;21292;52.416;13.046;2023-08-08T06:35:04;7.55;;;2.58;;
35114;SDS011;21292;52.416;13.046;2023-08-08T06:37:36;3.40;;;2.50;;
35114;SDS011;21292;52.416;13.046;2023-08-08T06:40:05;4.82;;;2.40;;
35114;SDS011;21292;52.416;13.046;2023-08-08T06:42:35;5.47;;;2.70;;
35114;SDS011;21292;52.416;13.046;2023-08-08T06:45:04;2.50;;;1.95;;
35114;SDS011;21292;52.416;13.046;2023-08-08T06:47:36;3.25;;;2.58;;
35114;SDS011;21292;52.416;13.046;2023-08-08T06:50:05;3.65;;;2.33;;
35114;SDS011;21292;52.416;13.046;2023-08-08T06:52:34;4.72;;;2.30;;
35114;SDS011;21292;52.416;13.046;2023-08-08T06:55:03;2.40;;;1.88;;
35114;SDS011;21292;52.416;13.046;2023-08-08T06:57:32;5.70;;;2.10;;
35114;SDS011;21292;52.416;13.046;2023-08-08T07:00:01;6.78;;;2.15;;
35114;SDS011;21292;52.416;13.046;2023-08-08T07:02:33;3.67;;;2.03;;
35114;SDS011;21292;52.416;13.046;2023-08-08T07:05:02;4.55;;;2.30;;
35114;SDS011;21292;52.416;13.046;2023-08-08T07:07:31;7.05;;;2.35;;
35114;SDS011;21292;52.416;13.046;2023-08-08T07:10:00;5.07;;;2.38;;
35114;SDS011;21292;52.416;13.046;2023-08-08T07:12:29;4.85;;;2.03;;
35114;SDS011;21292;52.416;13.046;2023-08-08T07:14:58;5.45;;;2.15;;
35114;SDS011;21292;52.416;13.046;2023-08-08T07:17:27;5.32;;;2.53;;
35114;SDS011;21292;52.416;13.046;2023-08-08T07:19:57;5.88;;;2.78;;
35114;SDS011;21292;52.416;13.046;2023-08-08T07:22:25;4.22;;;2.33;;
35114;SDS011;21292;52.416;13.046;2023-08-08T07:24:54;4.65;;;2.65;;
35114;SDS011;21292;52.416;13.046;2023-08-08T07:27:22;7.45;;;2.15;;
35114;SDS011;21292;52.416;13.046;2023-08-08T07:29:51;5.70;;;2.70;;
35114;SDS011;21292;52.416;13.046;2023-08-08T07:32:20;3.88;;;2.38;;
35114;SDS011;21292;52.416;13.046;2023-08-08T07:34:49;4.72;;;2.10;;
35114;SDS011;21292;52.416;13.046;2023-08-08T07:37:22;6.30;;;2.50;;
35114;SDS011;21292;52.416;13.046;2023-08-08T07:39:51;2.67;;;2.10;;
35114;SDS011;21292;52.416;13.046;2023-08-08T07:42:23;2.60;;;1.95;;
35114;SDS011;21292;52.416;13.046;2023-08-08T07:44:57;3.58;;;2.80;;
35114;SDS011;21292;52.416;13.046;2023-08-08T07:47:25;4.60;;;2.35;;
35114;SDS011;21292;52.416;13.046;2023-08-08T07:49:53;2.80;;;2.13;;
35114;SDS011;21292;52.416;13.046;2023-08-08T07:52:23;7.07;;;3.30;;
35114;SDS011;21292;52.416;13.046;2023-08-08T07:54:52;6.38;;;2.65;;
35114;SDS011;21292;52.416;13.046;2023-08-08T07:57:20;5.53;;;2.40;;
35114;SDS011;21292;52.416;13.046;2023-08-08T07:59:51;7.13;;;2.22;;
35114;SDS011;21292;52.416;13.046;2023-08-08T08:02:19;3.05;;;2.20;;
35114;SDS011;21292;52.416;13.046;2023-08-08T08:04:48;4.78;;;2.22;;
35114;SDS011;21292;52.416;13.046;2023-08-08T08:07:16;3.83;;;2.10;;
35114;SDS011;21292;52.416;13.046;2023-08-08T08:09:46;3.75;;;1.90;;
35114;SDS011;21292;52.416;13.046;2023-08-08T08:12:14;3.65;;;2.13;;
35114;SDS011;21292;52.416;13.046;2023-08-08T08:14:44;5.47;;;2.10;;
35114;SDS011;21292;52.416;13.046;2023-08-08T08:17:13;3.00;;;2.05;;
35114;SDS011;21292;52.416;13.046;2023-08-08T08:19:42;4.35;;;2.33;;
35114;SDS011;21292;52.416;13.046;2023-08-08T08:22:10;4.88;;;2.30;;
35114;SDS011;21292;52.416;13.046;2023-08-08T08:24:38;4.68;;;2.47;;
35114;SDS011;21292;52.416;13.046;2023-08-08T08:27:08;4.05;;;2.38;;
35114;SDS011;21292;52.416;13.046;2023-08-08T08:29:36;4.85;;;2.03;;
35114;SDS011;21292;52.416;13.046;2023-08-08T08:32:05;4.13;;;2.00;;
35114;SDS011;21292;52.416;13.046;2023-08-08T08:34:33;2.83;;;1.92;;
35114;SDS011;21292;52.416;13.046;2023-08-08T08:37:03;2.85;;;1.90;;
35114;SDS011;21292;52.416;13.046;2023-08-08T08:39:32;4.13;;;1.83;;
35114;SDS011;21292;52.416;13.046;2023-08-08T08:42:02;2.95;;;1.85;;
35114;SDS011;21292;52.416;13.046;2023-08-08T08:44:34;6.57;;;2.20;;
35114;SDS011;21292;52.416;13.046;2023-08-08T08:47:03;3.60;;;2.10;;
35114;SDS011;21292;52.416;13.046;2023-08-08T08:49:33;3.97;;;2.10;;
35114;SDS011;21292;52.416;13.046;2023-08-08T08:52:03;9.77;;;2.05;;
35114;SDS011;21292;52.416;13.046;2023-08-08T08:54:33;4.20;;;2.03;;
35114;SDS011;21292;52.416;13.046;2023-08-08T08:57:03;4.85;;;2.20;;
35114;SDS011;21292;52.416;13.046;2023-08-08T08:59:31;4.43;;;1.92;;
35114;SDS011;21292;52.416;13.046;2023-08-08T09:02:02;5.25;;;2.20;;
35114;SDS011;21292;52.416;13.046;2023-08-08T09:04:31;5.75;;;1.75;;
35114;SDS011;21292;52.416;13.046;2023-08-08T09:06:59;4.75;;;1.77;;
35114;SDS011;21292;52.416;13.046;2023-08-08T09:09:31;4.10;;;2.50;;
35114;SDS011;21292;52.416;13.046;2023-08-08T09:12:01;4.53;;;1.77;;
35114;SDS011;21292;52.416;13.046;2023-08-08T09:14:32;4.30;;;2.13;;
35114;SDS011;21292;52.416;13.046;2023-08-08T09:17:03;3.70;;;1.90;;
35114;SDS011;21292;52.416;13.046;2023-08-08T09:19:32;6.80;;;2.20;;
35114;SDS011;21292;52.416;13.046;2023-08-08T09:22:03;5.18;;;2.22;;
35114;SDS011;21292;52.416;13.046;2023-08-08T09:24:32;4.55;;;1.70;;
35114;SDS011;21292;52.416;13.046;2023-08-08T09:27:05;3.40;;;2.25;;
35114;SDS011;21292;52.416;13.046;2023-08-08T09:29:36;3.53;;;1.80;;
35114;SDS011;21292;52.416;13.046;2023-08-08T09:32:07;7.15;;;2.20;;
35114;SDS011;21292;52.416;13.046;2023-08-08T09:34:37;5.53;;;2.17;;
35114;SDS011;21292;52.416;13.046;2023-08-08T09:37:05;5.82;;;2.38;;
35114;SDS011;21292;52.416;13.046;2023-08-08T09:39:34;3.05;;;2.03;;
35114;SDS011;21292;52.416;13.046;2023-08-08T09:42:03;4.78;;;2.33;;
35114;SDS011;21292;52.416;13.046;2023-08-08T09:44:32;7.18;;;2.05;;
35114;SDS011;21292;52.416;13.046;2023-08-08T09:47:03;4.50;;;2.05;;
35114;SDS011;21292;52.416;13.046;2023-08-08T09:49:34;5.80;;;2.13;;
35114;SDS011;21292;52.416;13.046;2023-08-08T09:52:04;5.00;;;2.40;;
35114;SDS011;21292;52.416;13.046;2023-08-08T09:54:33;6.40;;;2.42;;
35114;SDS011;21292;52.416;13.046;2023-08-08T09:59:36;4.30;;;2.13;;
35114;SDS011;21292;52.416;13.046;2023-08-08T10:02:04;4.40;;;2.20;;
35114;SDS011;21292;52.416;13.046;2023-08-08T10:04:38;2.47;;;1.95;;
35114;SDS011;21292;52.416;13.046;2023-08-08T10:07:06;3.13;;;1.83;;
35114;SDS011;21292;52.416;13.046;2023-08-08T10:09:35;4.72;;;1.85;;
35114;SDS011;21292;52.416;13.046;2023-08-08T10:12:04;6.00;;;2.38;;
35114;SDS011;21292;52.416;13.046;2023-08-08T10:14:35;3.70;;;1.70;;
35114;SDS011;21292;52.416;13.046;2023-08-08T10:17:05;2.83;;;1.77;;
35114;SDS011;21292;52.416;13.046;2023-08-08T10:19:35;4.05;;;1.95;;
35114;SDS011;21292;52.416;13.046;2023-08-08T10:22:04;6.20;;;1.80;;
35114;SDS011;21292;52.416;13.046;2023-08-08T10:24:33;5.38;;;1.92;;
35114;SDS011;21292;52.416;13.046;2023-08-08T10:27:05;4.13;;;1.90;;
35114;SDS011;21292;52.416;13.046;2023-08-08T10:29:33;8.52;;;2.45;;
35114;SDS011;21292;52.416;13.046;2023-08-08T10:32:08;5.38;;;2.40;;
35114;SDS011;21292;52.416;13.046;2023-08-08T10:34:39;5.30;;;2.60;;
35114;SDS011;21292;52.416;13.046;2023-08-08T10:37:09;3.63;;;2.03;;
35114;SDS011;21292;52.416;13.046;2023-08-08T10:39:50;5.65;;;2.63;;
35114;SDS011;21292;52.416;13.046;2023-08-08T10:42:23;4.15;;;2.38;;
35114;SDS011;21292;52.416;13.046;2023-08-08T10:45:00;5.82;;;2.17;;
35114;SDS011;21292;52.416;13.046;2023-08-08T10:47:30;3.75;;;2.53;;
35114;SDS011;21292;52.416;13.046;2023-08-08T10:50:03;3.17;;;2.17;;
35114;SDS011;21292;52.416;13.046;2023-08-08T10:52:33;4.28;;;2.30;;
35114;SDS011;21292;52.416;13.046;2023-08-08T10:57:39;7.38;;;2.20;;
35114;SDS011;21292;52.416;13.046;2023-08-08T11:00:16;3.88;;;2.15;;
35114;SDS011;21292;52.416;13.046;2023-08-08T11:02:45;7.78;;;2.50;;
35114;SDS011;21292;52.416;13.046;2023-08-08T11:05:17;4.22;;;2.35;;
35114;SDS011;21292;52.416;13.046;2023-08-08T11:10:16;1.95;;;1.50;;
35114;SDS011;21292;52.416;13.046;2023-08-08T11:12:53;2.47;;;1.83;;
35114;SDS011;21292;52.416;13.046;2023-08-08T11:15:24;4.97;;;1.77;;
35114;SDS011;21292;52.416;13.046;2023-08-08T11:17:54;2.72;;;1.88;;
35114;SDS011;21292;52.416;13.046;2023-08-08T11:20:28;7.88;;;2.22;;
35114;SDS011;21292;52.416;13.046;2023-08-08T11:23:02;4.20;;;2.20;;
35114;SDS011;21292;52.416;13.046;2023-08-08T11:25:32;4.75;;;2.25;;
35114;SDS011;21292;52.416;13.046;2023-08-08T11:28:02;5.18;;;2.42;;
35114;SDS011;21292;52.416;13.046;2023-08-08T11:30:32;4.78;;;2.30;;
35114;SDS011;21292;52.416;13.046;2023-08-08T11:33:02;4.07;;;2.60;;
35114;SDS011;21292;52.416;13.046;2023-08-08T11:35:36;6.18;;;2.78;;
35114;SDS011;21292;52.416;13.046;2023-08-08T11:38:05;5.50;;;2.33;;
35114;SDS011;21292;52.416;13.046;2023-08-08T11:40:35;5.28;;;3.05;;
35114;SDS011;21292;52.416;13.046;2023-08-08T11:43:04;3.53;;;2.28;;
35114;SDS011;21292;52.416;13.046;2023-08-08T11:45:32;7.72;;;2.80;;
35114;SDS011;21292;52.416;13.046;2023-08-08T11:48:02;3.03;;;2.40;;
35114;SDS011;21292;52.416;13.046;2023-08-08T11:50:31;3.70;;;2.50;;
35114;SDS011;21292;52.416;13.046;2023-08-08T11:53:02;3.55;;;2.58;;
35114;SDS011;21292;52.416;13.046;2023-08-08T11:55:32;3.10;;;2.30;;
35114;SDS011;21292;52.416;13.046;2023-08-08T11:58:01;4.70;;;2.20;;
35114;SDS011;21292;52.416;13.046;2023-08-08T12:00:32;2.72;;;2.00;;
35114;SDS011;21292;52.416;13.046;2023-08-08T12:03:02;9.88;;;2.38;;
35114;SDS011;21292;52.416;13.046;2023-08-08T12:05:35;5.75;;;2.28;;
35114;SDS011;21292;52.416;13.046;2023-08-08T12:08:06;3.03;;;2.05;;
35114;SDS011;21292;52.416;13.046;2023-08-08T12:10:35;4.32;;;2.80;;
35114;SDS011;21292;52.416;13.046;2023-08-08T12:13:04;9.18;;;3.13;;
35114;SDS011;21292;52.416;13.046;2023-08-08T12:15:35;6.40;;;3.05;;
35114;SDS011;21292;52.416;13.046;2023-08-08T12:18:04;7.85;;;2.92;;
35114;SDS011;21292;52.416;13.046;2023-08-08T12:20:33;5.15;;;3.58;;
35114;SDS011;21292;52.416;13.046;2023-08-08T12:23:04;6.25;;;3.22;;
35114;SDS011;21292;52.416;13.046;2023-08-08T12:25:39;7.28;;;3.00;;
35114;SDS011;21292;52.416;13.046;2023-08-08T12:28:10;5.20;;;2.63;;
35114;SDS011;21292;52.416;13.046;2023-08-08T12:30:38;4.63;;;2.35;;
35114;SDS011;21292;52.416;13.046;2023-08-08T12:33:06;4.95;;;2.50;;
35114;SDS011;21292;52.416;13.046;2023-08-08T12:35:36;3.95;;;2.45;;
35114;SDS011;21292;52.416;13.046;2023-08-08T12:38:05;3.15;;;2.40;;
35114;SDS011;21292;52.416;13.046;2023-08-08T12:40:34;3.35;;;2.38;;
35114;SDS011;21292;52.416;13.046;2023-08-08T12:43:03;5.43;;;2.15;;
35114;SDS011;21292;52.416;13.046;2023-08-08T12:45:32;6.47;;;1.98;;
35114;SDS011;21292;52.416;13.046;2023-08-08T12:48:08;3.70;;;2.30;;
35114;SDS011;21292;52.416;13.046;2023-08-08T12:50:36;3.15;;;2.20;;
35114;SDS011;21292;52.416;13.046;2023-08-08T12:53:08;3.42;;;2.13;;
35114;SDS011;21292;52.416;13.046;2023-08-08T12:55:40;4.30;;;2.10;;
35114;SDS011;21292;52.416;13.046;2023-08-08T12:58:11;3.15;;;1.92;;
35114;SDS011;21292;52.416;13.046;2023-08-08T13:00:42;5.25;;;2.58;;
35114;SDS011;21292;52.416;13.046;2023-08-08T13:03:11;4.35;;;2.30;;
35114;SDS011;21292;52.416;13.046;2023-08-08T13:05:41;3.30;;;2.10;;
35114;SDS011;21292;52.416;13.046;2023-08-08T13:08:11;4.05;;;2.58;;
35114;SDS011;21292;52.416;13.046;2023-08-08T13:10:40;2.65;;;2.00;;
35114;SDS011;21292;52.416;13.046;2023-08-08T13:13:09;2.40;;;1.88;;
35114;SDS011;21292;52.416;13.046;2023-08-08T13:15:38;6.32;;;2.42;;
35114;SDS011;21292;52.416;13.046;2023-08-08T13:18:08;4.43;;;2.50;;
35114;SDS011;21292;52.416;13.046;2023-08-08T13:20:36;5.22;;;1.65;;
35114;SDS011;21292;52.416;13.046;2023-08-08T13:23:05;2.25;;;1.45;;
35114;SDS011;21292;52.416;13.046;2023-08-08T13:25:34;3.72;;;1.58;;
35114;SDS011;21292;52.416;13.046;2023-08-08T13:28:03;4.63;;;2.00;;
35114;SDS011;21292;52.416;13.046;2023-08-08T13:30:32;2.17;;;1.40;;
35114;SDS011;21292;52.416;13.046;2023-08-08T13:33:03;5.60;;;1.90;;
35114;SDS011;21292;52.416;13.046;2023-08-08T13:35:34;3.17;;;1.73;;
35114;SDS011;21292;52.416;13.046;2023-08-08T13:38:04;4.88;;;1.92;;
35114;SDS011;21292;52.416;13.046;2023-08-08T13:40:42;6.30;;;1.92;;
35114;SDS011;21292;52.416;13.046;2023-08-08T13:43:13;5.80;;;1.92;;
35114;SDS011;21292;52.416;13.046;2023-08-08T13:45:42;3.72;;;2.03;;
35114;SDS011;21292;52.416;13.046;2023-08-08T13:48:12;2.53;;;1.90;;
35114;SDS011;21292;52.416;13.046;2023-08-08T13:50:41;4.68;;;1.60;;
35114;SDS011;21292;52.416;13.046;2023-08-08T13:53:10;2.50;;;1.75;;
35114;SDS011;21292;52.416;13.046;2023-08-08T13:55:38;6.03;;;2.03;;
35114;SDS011;21292;52.416;13.046;2023-08-08T13:58:09;4.65;;;1.60;;
35114;SDS011;21292;52.416;13.046;2023-08-08T14:00:38;3.80;;;1.73;;
35114;SDS011;21292;52.416;13.046;2023-08-08T14:03:10;3.10;;;2.05;;
35114;SDS011;21292;52.416;13.046;2023-08-08T14:05:42;3.95;;;2.03;;
35114;SDS011;21292;52.416;13.046;2023-08-08T14:08:10;2.60;;;1.58;;
35114;SDS011;21292;52.416;13.046;2023-08-08T14:10:39;4.55;;;1.65;;
35114;SDS011;21292;52.416;13.046;2023-08-08T14:13:12;3.00;;;2.03;;
35114;SDS011;21292;52.416;13.046;2023-08-08T14:15:41;2.97;;;1.95;;
35114;SDS011;21292;52.416;13.046;2023-08-08T14:18:10;2.75;;;1.90;;
35114;SDS011;21292;52.416;13.046;2023-08-08T14:20:38;2.47;;;1.88;;
35114;SDS011;21292;52.416;13.046;2023-08-08T14:23:08;3.70;;;1.92;;
35114;SDS011;21292;52.416;13.046;2023-08-08T14:25:39;3.47;;;2.13;;
35114;SDS011;21292;52.416;13.046;2023-08-08T14:28:09;5.18;;;2.03;;
35114;SDS011;21292;52.416;13.046;2023-08-08T14:30:40;4.05;;;2.10;;
35114;SDS011;21292;52.416;13.046;2023-08-08T14:33:08;4.38;;;2.25;;
35114;SDS011;21292;52.416;13.046;2023-08-08T14:35:36;2.95;;;2.00;;
35114;SDS011;21292;52.416;13.046;2023-08-08T14:38:07;4.28;;;2.35;;
35114;SDS011;21292;52.416;13.046;2023-08-08T14:40:37;3.58;;;2.60;;
35114;SDS011;21292;52.416;13.046;2023-08-08T14:43:06;6.32;;;2.90;;
35114;SDS011;21292;52.416;13.046;2023-08-08T14:45:47;3.60;;;2.60;;
35114;SDS011;21292;52.416;13.046;2023-08-08T14:48:16;7.43;;;2.58;;
35114;SDS011;21292;52.416;13.046;2023-08-08T14:50:45;2.75;;;2.30;;
35114;SDS011;21292;52.416;13.046;2023-08-08T14:53:14;6.07;;;2.33;;
35114;SDS011;21292;52.416;13.046;2023-08-08T14:55:43;3.75;;;2.20;;
35114;SDS011;21292;52.416;13.046;2023-08-08T14:58:13;3.72;;;2.22;;